Time;durP1;ratioP1;P1;durP2;ratioP2;P2;SDS_P1;SDS_P2;PMS_P1;PMS_P2;Temp;Humidity;BMP_temperature;BMP_pressure;BME280_temperature;BME280_humidity;BME280_pressure;Samples;Min_cycle;Max_cycle;Signal;HPM_P1;HPM_P2
2021/08/09 00:00:58;;;;;;;;;;;;;;;18.71;80.25;98395.30;1764700;81;20849;-89
2021/08/09 00:03:25;;;;;;;;;;;;;;;18.72;80.23;98387.69;1736709;81;20467;-89
2021/08/09 00:05:51;;;;;;;;;;;;;;;18.74;80.21;98379.09;1717335;81;25208;-88
2021/08/09 00:08:18;;;;;;;;;;;;;;;18.77;80.20;98385.87;1761331;81;20355;-89
2021/08/09 00:10:45;;;;;;;;;;;;;;;18.70;80.22;98394.98;1758533;81;25983;-89
2021/08/09 00:13:11;;;;;;;;;;;;;;;18.70;80.20;98387.52;1758179;80;20291;-89
2021/08/09 00:15:43;;;;;;;;;;;;;;;18.69;80.19;98399.11;1755516;81;20160;-89
2021/08/09 00:18:07;;;;;;;;;;;;;;;18.62;80.17;98398.08;1756284;81;24402;-89
2021/08/09 00:20:33;;;;;;;;;;;;;;;18.55;80.12;98396.55;1758707;81;22079;-89
2021/08/09 00:22:59;;;;;;;;;;;;;;;18.52;80.10;98399.50;1770608;79;20939;-89
2021/08/09 00:25:25;;;;;;;;;;;;;;;18.52;80.10;98396.84;1766078;80;24458;-89
2021/08/09 00:27:51;;;;;;;;;;;;;;;18.55;80.05;98402.34;1768118;80;20286;-86
2021/08/09 00:30:17;;;;;;;;;;;;;;;18.53;80.00;98399.00;1769404;80;24752;-87
2021/08/09 00:32:44;;;;;;;;;;;;;;;18.46;79.94;98401.45;1769116;80;22296;-87
2021/08/09 00:35:10;;;;;;;;;;;;;;;18.44;79.85;98401.28;1795141;79;26003;-87
2021/08/09 00:37:36;;;;;;;;;;;;;;;18.44;79.79;98391.48;1763421;80;24493;-90
2021/08/09 00:40:06;;;;;;;;;;;;;;;18.29;79.73;98380.65;1796788;79;20197;-89
2021/08/09 00:42:38;;;;;;;;;;;;;;;18.22;79.67;98396.02;1762854;79;24800;-89
2021/08/09 00:45:06;;;;;;;;;;;;;;;18.20;79.67;98403.28;1776411;79;21995;-89
2021/08/09 00:47:50;;;;;;;;;;;;;;;18.21;79.65;98404.95;1797567;79;26082;-89
2021/08/09 00:50:17;;;;;;;;;;;;;;;18.18;79.59;98402.59;1796602;79;24496;-88
2021/08/09 00:52:46;;;;;;;;;;;;;;;18.14;79.55;98399.92;1738588;81;20242;-89
2021/08/09 00:55:14;;;;;;;;;;;;;;;18.09;79.52;98398.23;1790547;79;24804;-89
2021/08/09 00:57:41;;;;;;;;;;;;;;;18.08;79.50;98400.55;1810539;79;22089;-88
2021/08/09 01:00:12;;;;;;;;;;;;;;;18.04;79.48;98403.17;1777358;79;21969;-89
2021/08/09 01:02:38;;;;;;;;;;;;;;;18.01;79.46;98395.52;1811283;79;24604;-88
2021/08/09 01:05:05;;;;;;;;;;;;;;;17.98;79.43;98405.94;1810820;79;20352;-88
2021/08/09 01:07:33;;;;;;;;;;;;;;;17.92;79.44;98403.91;1811570;77;24733;-88
2021/08/09 01:10:07;;;;;;;;;;;;;;;17.86;79.41;98411.14;1809639;79;22047;-88
2021/08/09 01:12:35;;;;;;;;;;;;;;;17.82;79.39;98413.27;1806573;78;26069;-88
2021/08/09 01:15:09;;;;;;;;;;;;;;;17.74;79.37;98417.16;1807990;79;24336;-88
2021/08/09 01:17:40;;;;;;;;;;;;;;;17.67;79.36;98415.29;1797933;79;20213;-88
2021/08/09 01:20:17;;;;;;;;;;;;;;;17.58;79.36;98411.20;1770570;79;25841;-88
2021/08/09 01:22:47;;;;;;;;;;;;;;;17.55;79.35;98412.00;1753199;80;22074;-89
2021/08/09 01:25:24;;;;;;;;;;;;;;;17.48;79.40;98404.32;1778834;80;26914;-90
2021/08/09 01:27:56;;;;;;;;;;;;;;;17.40;79.44;98401.09;1764317;80;24421;-88
2021/08/09 01:30:20;;;;;;;;;;;;;;;17.38;79.51;98406.22;1774520;79;20213;-88
2021/08/09 01:32:47;;;;;;;;;;;;;;;17.32;79.60;98400.20;1793910;79;24759;-87
2021/08/09 01:35:21;;;;;;;;;;;;;;;17.32;79.68;98406.33;1760316;80;21350;-87
2021/08/09 01:37:49;;;;;;;;;;;;;;;17.27;79.79;98412.55;1764933;80;25990;-88
2021/08/09 01:40:15;;;;;;;;;;;;;;;17.26;79.89;98417.98;1797002;79;24647;-89
2021/08/09 01:42:43;;;;;;;;;;;;;;;17.26;79.98;98414.86;1775501;79;20315;-88
2021/08/09 01:45:09;;;;;;;;;;;;;;;17.21;80.05;98416.28;1786160;79;24847;-88
2021/08/09 01:47:39;;;;;;;;;;;;;;;17.17;80.10;98425.02;1782081;79;22066;-88
2021/08/09 01:50:11;;;;;;;;;;;;;;;17.12;80.20;98416.21;1770579;79;26078;-88
2021/08/09 01:52:39;;;;;;;;;;;;;;;17.09;80.29;98415.16;1761879;80;24413;-89
2021/08/09 01:55:12;;;;;;;;;;;;;;;17.04;80.36;98417.42;1790547;79;20233;-89
2021/08/09 01:57:38;;;;;;;;;;;;;;;17.05;80.45;98413.81;1806969;79;25569;-89
2021/08/09 02:00:11;;;;;;;;;;;;;;;17.05;80.55;98414.30;1806268;79;22005;-89
2021/08/09 02:02:40;;;;;;;;;;;;;;;17.00;80.62;98412.59;1806585;79;26208;-89
2021/08/09 02:05:08;;;;;;;;;;;;;;;16.95;80.67;98418.32;1811335;79;24529;-89
2021/08/09 02:07:35;;;;;;;;;;;;;;;16.96;80.74;98416.03;1810289;78;20178;-89
2021/08/09 02:10:02;;;;;;;;;;;;;;;16.97;80.83;98408.41;1807343;79;25162;-89
2021/08/09 02:12:33;;;;;;;;;;;;;;;16.98;80.88;98404.80;1810020;78;22036;-90
2021/08/09 02:15:01;;;;;;;;;;;;;;;16.98;80.96;98406.11;1806644;79;26039;-89
2021/08/09 02:17:28;;;;;;;;;;;;;;;16.93;81.01;98399.13;1811353;79;24508;-89
2021/08/09 02:19:56;;;;;;;;;;;;;;;16.90;81.05;98392.82;1810946;78;20219;-89
2021/08/09 02:22:24;;;;;;;;;;;;;;;16.89;81.10;98397.76;1797435;77;24812;-90
2021/08/09 02:25:08;;;;;;;;;;;;;;;16.91;81.14;98408.20;1758802;81;22188;-90
2021/08/09 02:27:45;;;;;;;;;;;;;;;16.88;81.17;98420.37;1752116;80;25883;-89
2021/08/09 02:30:12;;;;;;;;;;;;;;;16.90;81.25;98423.70;1764100;80;24688;-90
2021/08/09 02:32:39;;;;;;;;;;;;;;;16.93;81.30;98431.33;1788555;79;20204;-90
2021/08/09 02:35:06;;;;;;;;;;;;;;;16.96;81.31;98427.09;1761659;79;24815;-89
2021/08/09 02:37:33;;;;;;;;;;;;;;;16.96;81.33;98417.84;1770046;80;21967;-90
2021/08/09 02:40:03;;;;;;;;;;;;;;;16.98;81.36;98425.95;1777664;80;25793;-90
2021/08/09 02:42:30;;;;;;;;;;;;;;;16.98;81.37;98435.69;1761441;80;24457;-90
2021/08/09 02:44:56;;;;;;;;;;;;;;;16.96;81.38;98445.59;1764037;80;20250;-89
2021/08/09 02:47:25;;;;;;;;;;;;;;;16.99;81.37;98448.77;1769829;80;24884;-89
2021/08/09 02:49:55;;;;;;;;;;;;;;;17.01;81.39;98449.46;1765742;80;22060;-89
2021/08/09 02:52:22;;;;;;;;;;;;;;;16.96;81.36;98463.61;1801547;78;26079;-89
2021/08/09 02:54:51;;;;;;;;;;;;;;;16.95;81.38;98466.39;1808206;79;24438;-89
2021/08/09 02:57:18;;;;;;;;;;;;;;;16.87;81.38;98465.79;1811170;79;20489;-89
2021/08/09 02:59:44;;;;;;;;;;;;;;;16.81;81.38;98470.34;1809235;79;24770;-87
2021/08/09 03:02:13;;;;;;;;;;;;;;;16.73;81.37;98479.49;1806624;79;21933;-87
2021/08/09 03:04:40;;;;;;;;;;;;;;;16.62;81.39;98474.38;1811812;79;26067;-87
2021/08/09 03:07:07;;;;;;;;;;;;;;;16.63;81.41;98486.63;1783036;79;24506;-87
2021/08/09 03:09:34;;;;;;;;;;;;;;;16.61;81.44;98496.01;1809729;79;20239;-87
2021/08/09 03:12:00;;;;;;;;;;;;;;;16.57;81.48;98501.70;1811454;79;24779;-86
2021/08/09 03:14:31;;;;;;;;;;;;;;;16.55;81.53;98508.44;1807916;79;22051;-86
2021/08/09 03:16:59;;;;;;;;;;;;;;;16.54;81.60;98512.05;1810910;79;25996;-87
2021/08/09 03:19:27;;;;;;;;;;;;;;;16.58;81.64;98520.02;1810767;79;24520;-87
2021/08/09 03:21:57;;;;;;;;;;;;;;;16.57;81.70;98521.52;1807859;79;20256;-87
2021/08/09 03:24:24;;;;;;;;;;;;;;;16.57;81.74;98516.23;1809877;79;24748;-87
2021/08/09 03:26:51;;;;;;;;;;;;;;;16.59;81.78;98519.57;1810117;79;22774;-87
2021/08/09 03:29:17;;;;;;;;;;;;;;;16.55;81.83;98516.84;1806968;79;26305;-86
2021/08/09 03:31:46;;;;;;;;;;;;;;;16.49;81.85;98525.34;1803133;79;24391;-87
2021/08/09 03:34:14;;;;;;;;;;;;;;;16.46;81.90;98525.15;1766280;79;20534;-89
2021/08/09 03:36:49;;;;;;;;;;;;;;;16.46;81.96;98530.44;1764641;79;24743;-89
2021/08/09 03:39:12;;;;;;;;;;;;;;;16.43;82.01;98522.77;1794090;78;22085;-88
2021/08/09 03:41:39;;;;;;;;;;;;;;;16.40;82.03;98527.52;1792094;79;26042;-89
2021/08/09 03:44:11;;;;;;;;;;;;;;;16.33;82.06;98528.08;1779780;80;24501;-89
2021/08/09 03:46:45;;;;;;;;;;;;;;;16.28;82.08;98532.95;1783209;80;20582;-89
2021/08/09 03:49:17;;;;;;;;;;;;;;;16.24;82.16;98535.53;1799269;79;24768;-89
2021/08/09 03:51:45;;;;;;;;;;;;;;;16.25;82.21;98535.05;1799262;79;22757;-89
2021/08/09 03:54:19;;;;;;;;;;;;;;;16.31;82.27;98545.02;1796526;79;26102;-90
2021/08/09 03:56:54;;;;;;;;;;;;;;;16.36;82.34;98541.98;1757790;80;25200;-89
2021/08/09 03:59:24;;;;;;;;;;;;;;;16.36;82.41;98537.54;1799872;79;20246;-89
2021/08/09 04:01:56;;;;;;;;;;;;;;;16.38;82.46;98547.45;1791216;79;25378;-90
2021/08/09 04:04:22;;;;;;;;;;;;;;;16.38;82.56;98545.30;1799078;79;21905;-90
2021/08/09 04:06:51;;;;;;;;;;;;;;;16.29;82.60;98550.47;1794472;79;26073;-89
2021/08/09 04:09:17;;;;;;;;;;;;;;;16.24;82.67;98547.90;1799323;79;24576;-89
2021/08/09 04:11:47;;;;;;;;;;;;;;;16.29;82.71;98554.91;1796719;79;20373;-90
2021/08/09 04:14:19;;;;;;;;;;;;;;;16.39;82.78;98558.86;1799224;79;24758;-89
2021/08/09 04:16:54;;;;;;;;;;;;;;;16.50;82.83;98562.67;1788956;79;21989;-90
2021/08/09 04:19:21;;;;;;;;;;;;;;;16.56;82.87;98561.63;1772541;79;41506;-89
2021/08/09 04:21:51;;;;;;;;;;;;;;;16.47;82.91;98566.45;1800650;79;24421;-89
2021/08/09 04:24:17;;;;;;;;;;;;;;;16.41;82.92;98572.77;1770096;80;20507;-89
2021/08/09 04:26:43;;;;;;;;;;;;;;;16.39;82.94;98568.11;1805815;79;25487;-89
2021/08/09 04:29:10;;;;;;;;;;;;;;;16.46;83.02;98563.94;1767441;80;22021;-89
2021/08/09 04:31:38;;;;;;;;;;;;;;;16.61;83.06;98568.67;1808547;79;26748;-89
2021/08/09 04:34:03;;;;;;;;;;;;;;;16.73;83.05;98568.03;1812940;79;24513;-89
2021/08/09 04:36:29;;;;;;;;;;;;;;;16.82;83.07;98572.45;1812919;79;20849;-89
2021/08/09 04:38:55;;;;;;;;;;;;;;;16.89;83.09;98581.48;1810949;78;24705;-90
2021/08/09 04:41:23;;;;;;;;;;;;;;;16.89;83.08;98580.16;1813053;78;20142;-90
2021/08/09 04:43:49;;;;;;;;;;;;;;;16.84;83.08;98579.76;1813680;79;26582;-90
2021/08/09 04:46:16;;;;;;;;;;;;;;;16.88;83.10;98584.27;1805035;79;24559;-89
2021/08/09 04:48:43;;;;;;;;;;;;;;;16.86;83.09;98590.17;1807044;79;20296;-89
2021/08/09 04:51:10;;;;;;;;;;;;;;;16.83;83.10;98587.83;1798866;79;24785;-90
2021/08/09 04:53:36;;;;;;;;;;;;;;;16.82;83.10;98588.31;1795574;79;21998;-90
2021/08/09 04:56:03;;;;;;;;;;;;;;;16.90;83.11;98588.93;1797128;79;26099;-89
2021/08/09 04:58:29;;;;;;;;;;;;;;;16.96;83.18;98586.55;1804706;79;20300;-89
2021/08/09 05:00:57;;;;;;;;;;;;;;;16.99;83.19;98586.25;1802176;79;20815;-89
2021/08/09 05:03:23;;;;;;;;;;;;;;;17.05;83.25;98584.84;1787557;79;24861;-89
2021/08/09 05:05:51;;;;;;;;;;;;;;;17.17;83.27;98585.51;1793809;79;21947;-88
2021/08/09 05:08:17;;;;;;;;;;;;;;;17.32;83.29;98589.34;1759388;80;26084;-89
2021/08/09 05:10:44;;;;;;;;;;;;;;;17.31;83.32;98589.83;1798442;78;24817;-89
2021/08/09 05:13:10;;;;;;;;;;;;;;;17.36;83.35;98584.93;1804257;78;20610;-89
2021/08/09 05:15:38;;;;;;;;;;;;;;;17.47;83.38;98578.61;1809259;79;24807;-89
2021/08/09 05:18:16;;;;;;;;;;;;;;;17.53;83.42;98578.86;1799256;79;21937;-89
2021/08/09 05:20:43;;;;;;;;;;;;;;;17.67;83.44;98576.75;1804223;79;26022;-89
2021/08/09 05:23:09;;;;;;;;;;;;;;;17.72;83.45;98576.64;1773380;79;24410;-89
2021/08/09 05:25:35;;;;;;;;;;;;;;;17.76;83.48;98576.69;1760758;80;20279;-89
2021/08/09 05:28:01;;;;;;;;;;;;;;;17.70;83.47;98579.08;1792057;79;24818;-89
2021/08/09 05:30:27;;;;;;;;;;;;;;;17.72;83.50;98583.27;1773089;80;22007;-89
2021/08/09 05:32:53;;;;;;;;;;;;;;;17.70;83.52;98585.22;1774166;79;25959;-89
2021/08/09 05:35:19;;;;;;;;;;;;;;;17.75;83.55;98586.92;1796154;78;24368;-89
2021/08/09 05:37:45;;;;;;;;;;;;;;;17.84;83.58;98591.31;1786451;79;20798;-89
2021/08/09 05:40:11;;;;;;;;;;;;;;;17.90;83.61;98591.21;1800378;79;20298;-89
2021/08/09 05:42:37;;;;;;;;;;;;;;;17.96;83.62;98596.75;1773577;79;21935;-89
2021/08/09 05:45:09;;;;;;;;;;;;;;;18.02;83.62;98585.22;1798723;79;25972;-89
2021/08/09 05:47:35;;;;;;;;;;;;;;;18.03;83.62;98598.80;1793640;79;24524;-89
2021/08/09 05:50:01;;;;;;;;;;;;;;;18.01;83.65;98603.41;1790385;79;20503;-89
2021/08/09 05:52:27;;;;;;;;;;;;;;;18.01;83.66;98598.11;1799848;78;25962;-89
2021/08/09 05:54:55;;;;;;;;;;;;;;;18.05;83.68;98595.52;1802436;79;21955;-89
2021/08/09 05:57:21;;;;;;;;;;;;;;;18.04;83.68;98597.83;1798307;79;26383;-89
2021/08/09 05:59:48;;;;;;;;;;;;;;;18.11;83.71;98597.58;1770534;79;25229;-87
2021/08/09 06:02:14;;;;;;;;;;;;;;;18.17;83.76;98598.27;1771758;79;20238;-87
2021/08/09 06:04:41;;;;;;;;;;;;;;;18.13;83.76;98591.62;1772844;79;24806;-88
2021/08/09 06:07:13;;;;;;;;;;;;;;;18.19;83.80;98596.31;1802620;79;21938;-88
2021/08/09 06:09:44;;;;;;;;;;;;;;;18.24;83.82;98593.55;1791866;78;26046;-88
2021/08/09 06:12:11;;;;;;;;;;;;;;;18.31;83.88;98593.30;1801198;79;24656;-89
2021/08/09 06:14:37;;;;;;;;;;;;;;;18.35;83.94;98589.84;1760197;81;20471;-88
2021/08/09 06:17:05;;;;;;;;;;;;;;;18.37;83.99;98592.69;1766337;79;24732;-88
2021/08/09 06:19:39;;;;;;;;;;;;;;;18.43;84.05;98596.55;1767849;80;21978;-88
2021/08/09 06:22:05;;;;;;;;;;;;;;;18.49;84.12;98597.77;1764727;80;26007;-87
2021/08/09 06:24:32;;;;;;;;;;;;;;;18.52;84.16;98596.95;1782180;79;24499;-87
2021/08/09 06:27:01;;;;;;;;;;;;;;;18.56;84.21;98590.38;1785190;79;20276;-87
2021/08/09 06:29:28;;;;;;;;;;;;;;;18.59;84.23;98599.37;1807710;79;24807;-87
2021/08/09 06:31:55;;;;;;;;;;;;;;;18.65;84.25;98600.58;1811554;79;21891;-88
2021/08/09 06:34:21;;;;;;;;;;;;;;;18.76;84.30;98604.31;1796269;79;26178;-88
2021/08/09 06:36:47;;;;;;;;;;;;;;;18.78;84.31;98603.16;1804871;79;24492;-88
2021/08/09 06:39:18;;;;;;;;;;;;;;;18.81;84.33;98608.66;1784725;79;20520;-87
2021/08/09 06:41:41;;;;;;;;;;;;;;;18.85;84.31;98606.52;1784493;79;25567;-89
2021/08/09 06:44:07;;;;;;;;;;;;;;;18.89;84.32;98610.02;1781129;79;21859;-87
2021/08/09 06:46:33;;;;;;;;;;;;;;;18.86;84.30;98609.51;1800098;79;25962;-87
2021/08/09 06:49:00;;;;;;;;;;;;;;;18.84;84.26;98608.82;1770277;80;24305;-88
2021/08/09 06:51:29;;;;;;;;;;;;;;;18.86;84.26;98612.16;1806480;78;20541;-88
2021/08/09 06:54:01;;;;;;;;;;;;;;;18.90;84.28;98611.69;1798411;79;24406;-88
2021/08/09 06:56:27;;;;;;;;;;;;;;;18.90;84.24;98610.86;1796651;79;21931;-88
2021/08/09 06:58:54;;;;;;;;;;;;;;;18.92;84.20;98607.56;1777420;79;26766;-87
2021/08/09 07:01:22;;;;;;;;;;;;;;;18.91;84.18;98610.71;1788328;79;24671;-87
2021/08/09 07:03:49;;;;;;;;;;;;;;;18.99;84.17;98613.89;1790829;79;20262;-88
2021/08/09 07:06:20;;;;;;;;;;;;;;;18.98;84.17;98616.23;1785950;79;24847;-88
2021/08/09 07:08:46;;;;;;;;;;;;;;;19.00;84.13;98615.56;1770955;79;22098;-88
2021/08/09 07:11:12;;;;;;;;;;;;;;;19.03;84.13;98616.59;1767967;80;25970;-88
2021/08/09 07:13:38;;;;;;;;;;;;;;;19.04;84.12;98612.92;1787216;79;24695;-88
2021/08/09 07:16:10;;;;;;;;;;;;;;;19.04;84.05;98611.11;1788316;79;20387;-87
2021/08/09 07:18:36;;;;;;;;;;;;;;;19.08;84.04;98613.81;1739272;81;24795;-88
2021/08/09 07:21:03;;;;;;;;;;;;;;;19.07;83.97;98609.98;1790930;79;21967;-88
2021/08/09 07:23:29;;;;;;;;;;;;;;;19.04;83.92;98609.78;1792289;79;26815;-87
2021/08/09 07:25:55;;;;;;;;;;;;;;;19.01;83.82;98613.25;1796034;79;25164;-88
2021/08/09 07:28:22;;;;;;;;;;;;;;;19.05;83.70;98610.12;1797461;79;20277;-87
2021/08/09 07:30:48;;;;;;;;;;;;;;;19.12;83.58;98613.83;1804310;79;24812;-87
2021/08/09 07:33:14;;;;;;;;;;;;;;;19.15;83.44;98608.69;1763203;80;22028;-87
2021/08/09 07:35:40;;;;;;;;;;;;;;;19.16;83.33;98610.36;1756383;80;27007;-88
2021/08/09 07:38:06;;;;;;;;;;;;;;;19.18;83.26;98613.70;1797771;79;24480;-88
2021/08/09 07:40:33;;;;;;;;;;;;;;;19.16;83.19;98613.84;1805293;79;20271;-88
2021/08/09 07:42:59;;;;;;;;;;;;;;;19.21;83.11;98610.72;1772466;80;24921;-88
2021/08/09 07:45:25;;;;;;;;;;;;;;;19.27;83.06;98610.59;1804078;79;22042;-89
2021/08/09 07:47:56;;;;;;;;;;;;;;;19.39;82.99;98613.31;1811441;78;25944;-88
2021/08/09 07:50:28;;;;;;;;;;;;;;;19.51;82.94;98614.24;1801787;79;24421;-88
2021/08/09 07:52:54;;;;;;;;;;;;;;;19.53;82.86;98619.38;1773344;80;20227;-88
2021/08/09 07:55:20;;;;;;;;;;;;;;;19.51;82.74;98624.03;1800806;79;20260;-88
2021/08/09 07:57:46;;;;;;;;;;;;;;;19.48;82.58;98621.18;1803068;79;20943;-88
2021/08/09 08:00:12;;;;;;;;;;;;;;;19.55;82.45;98624.88;1802479;78;26205;-88
2021/08/09 08:02:38;;;;;;;;;;;;;;;19.61;82.35;98628.22;1798976;78;24403;-88
2021/08/09 08:05:05;;;;;;;;;;;;;;;19.66;82.20;98621.59;1801287;78;20333;-87
2021/08/09 08:07:32;;;;;;;;;;;;;;;19.69;82.11;98619.97;1801622;79;24943;-87
2021/08/09 08:10:01;;;;;;;;;;;;;;;19.74;81.96;98619.82;1801199;78;22081;-87
2021/08/09 08:12:27;;;;;;;;;;;;;;;19.82;81.84;98625.64;1799242;79;26150;-87
2021/08/09 08:14:53;;;;;;;;;;;;;;;19.98;81.72;98625.69;1801097;79;25318;-87
2021/08/09 08:17:23;;;;;;;;;;;;;;;20.08;81.69;98625.05;1777591;80;20460;-87
2021/08/09 08:19:50;;;;;;;;;;;;;;;20.15;81.61;98625.23;1789391;79;25448;-87
2021/08/09 08:22:16;;;;;;;;;;;;;;;20.22;81.50;98627.59;1770301;80;21948;-87
2021/08/09 08:24:42;;;;;;;;;;;;;;;20.32;81.35;98625.14;1781620;79;20983;-87
2021/08/09 08:27:09;;;;;;;;;;;;;;;20.33;81.08;98624.16;1797392;79;20308;-87
2021/08/09 08:29:36;;;;;;;;;;;;;;;20.25;80.79;98620.60;1780083;79;20291;-87
2021/08/09 08:32:02;;;;;;;;;;;;;;;20.21;80.44;98628.08;1784873;79;24801;-88
2021/08/09 08:34:28;;;;;;;;;;;;;;;20.29;80.19;98614.79;1785365;78;22525;-87
2021/08/09 08:36:56;;;;;;;;;;;;;;;20.46;80.03;98617.84;1781724;79;25392;-87
2021/08/09 08:39:22;;;;;;;;;;;;;;;20.42;79.71;98623.16;1784925;79;20269;-87
2021/08/09 08:41:48;;;;;;;;;;;;;;;20.48;79.42;98615.52;1780696;79;20620;-87
2021/08/09 08:44:18;;;;;;;;;;;;;;;20.56;79.22;98612.88;1787520;77;25067;-87
2021/08/09 08:46:45;;;;;;;;;;;;;;;20.66;79.09;98621.02;1782199;79;21964;-87
2021/08/09 08:49:16;;;;;;;;;;;;;;;20.69;78.87;98613.20;1785899;79;26553;-87
2021/08/09 08:51:47;;;;;;;;;;;;;;;20.74;78.61;98618.84;1786874;79;24454;-86
2021/08/09 08:54:14;;;;;;;;;;;;;;;20.80;78.34;98623.00;1784042;79;20203;-87
2021/08/09 08:56:40;;;;;;;;;;;;;;;20.79;77.95;98620.50;1789665;79;24946;-87
2021/08/09 08:59:11;;;;;;;;;;;;;;;20.79;77.67;98615.18;1791650;79;21977;-87
2021/08/09 09:01:36;;;;;;;;;;;;;;;20.84;77.50;98616.34;1787844;79;25907;-87
2021/08/09 09:04:03;;;;;;;;;;;;;;;20.88;77.27;98615.53;1791580;79;24415;-87
2021/08/09 09:06:31;;;;;;;;;;;;;;;21.03;77.17;98617.83;1794362;79;20326;-87
2021/08/09 09:08:57;;;;;;;;;;;;;;;21.11;76.98;98616.47;1787295;79;25055;-87
2021/08/09 09:11:25;;;;;;;;;;;;;;;21.24;76.81;98617.31;1785001;79;20254;-88
2021/08/09 09:13:55;;;;;;;;;;;;;;;21.42;76.70;98621.11;1798308;79;26558;-87
2021/08/09 09:16:23;;;;;;;;;;;;;;;21.49;76.50;98622.09;1788028;79;24390;-87
2021/08/09 09:18:58;;;;;;;;;;;;;;;21.65;76.32;98618.88;1793863;79;20508;-87
2021/08/09 09:21:32;;;;;;;;;;;;;;;21.85;76.18;98614.45;1779450;79;25338;-87
2021/08/09 09:24:11;;;;;;;;;;;;;;;21.91;75.98;98611.92;1789774;79;21886;-87
2021/08/09 09:26:38;;;;;;;;;;;;;;;21.98;75.80;98607.56;1800412;79;26004;-87
2021/08/09 09:29:10;;;;;;;;;;;;;;;22.09;75.61;98617.83;1799121;79;25319;-87
2021/08/09 09:31:37;;;;;;;;;;;;;;;22.15;75.35;98610.16;1797741;79;20238;-87
2021/08/09 09:34:05;;;;;;;;;;;;;;;22.23;75.10;98611.43;1808831;78;25197;-87
2021/08/09 09:36:32;;;;;;;;;;;;;;;22.36;74.92;98609.02;1757464;80;21999;-87
2021/08/09 09:38:59;;;;;;;;;;;;;;;22.44;74.61;98608.95;1778536;80;26620;-86
2021/08/09 09:41:25;;;;;;;;;;;;;;;22.62;74.45;98615.32;1776511;80;25396;-86
2021/08/09 09:43:51;;;;;;;;;;;;;;;22.74;74.23;98618.77;1777780;80;20534;-87
2021/08/09 09:46:23;;;;;;;;;;;;;;;22.96;74.10;98616.23;1803191;79;24956;-87
2021/08/09 09:48:50;;;;;;;;;;;;;;;23.03;73.80;98617.14;1806322;79;21988;-87
2021/08/09 09:51:17;;;;;;;;;;;;;;;23.06;73.54;98616.80;1806274;79;26032;-86
2021/08/09 09:53:50;;;;;;;;;;;;;;;22.99;73.24;98611.85;1800972;78;24505;-87
2021/08/09 09:56:13;;;;;;;;;;;;;;;22.89;72.85;98613.45;1800133;78;20282;-86
2021/08/09 09:58:39;;;;;;;;;;;;;;;22.83;72.53;98612.34;1807095;79;25741;-86
2021/08/09 10:01:07;;;;;;;;;;;;;;;22.77;72.24;98619.72;1806072;79;22132;-86
2021/08/09 10:03:34;;;;;;;;;;;;;;;22.72;72.01;98614.09;1805243;78;26074;-86
2021/08/09 10:06:13;;;;;;;;;;;;;;;22.64;71.77;98615.45;1799045;78;25482;-87
2021/08/09 10:08:41;;;;;;;;;;;;;;;22.55;71.46;98620.53;1798903;78;20446;-86
2021/08/09 10:11:10;;;;;;;;;;;;;;;22.56;71.19;98611.53;1805027;79;24889;-86
2021/08/09 10:13:37;;;;;;;;;;;;;;;22.63;70.98;98612.48;1773812;80;21789;-87
2021/08/09 10:16:04;;;;;;;;;;;;;;;22.71;70.72;98608.43;1810634;79;26289;-87
2021/08/09 10:18:33;;;;;;;;;;;;;;;22.88;70.54;98605.95;1801791;79;24517;-87
2021/08/09 10:21:02;;;;;;;;;;;;;;;22.93;70.35;98601.39;1798711;79;20233;-87
2021/08/09 10:23:36;;;;;;;;;;;;;;;23.01;70.16;98608.51;1800709;78;24981;-87
2021/08/09 10:26:03;;;;;;;;;;;;;;;22.98;69.87;98606.19;1811459;79;21997;-87
2021/08/09 10:28:47;;;;;;;;;;;;;;;23.06;69.69;98604.78;1805397;79;26167;-87
2021/08/09 10:31:35;;;;;;;;;;;;;;;23.24;69.71;98603.91;1783122;79;25251;-87
2021/08/09 10:34:04;;;;;;;;;;;;;;;23.28;69.46;98602.05;1779552;80;20272;-86
2021/08/09 10:36:33;;;;;;;;;;;;;;;23.35;69.26;98602.12;1800218;79;25720;-86
2021/08/09 10:39:00;;;;;;;;;;;;;;;23.34;68.95;98592.48;1773540;79;21641;-87
2021/08/09 10:41:28;;;;;;;;;;;;;;;23.26;68.53;98593.89;1799929;78;26227;-87
2021/08/09 10:44:08;;;;;;;;;;;;;;;23.15;68.07;98594.34;1797339;79;25339;-87
2021/08/09 10:46:36;;;;;;;;;;;;;;;23.05;67.66;98593.27;1804737;78;20445;-87
2021/08/09 10:49:03;;;;;;;;;;;;;;;23.04;67.36;98598.28;1798887;79;25785;-86
2021/08/09 10:51:47;;;;;;;;;;;;;;;23.10;67.09;98600.73;1800189;79;21987;-86
2021/08/09 10:54:27;;;;;;;;;;;;;;;23.22;66.98;98596.11;1798417;77;26035;-86
2021/08/09 10:56:55;;;;;;;;;;;;;;;23.34;66.83;98593.31;1806414;78;25412;-86
2021/08/09 10:59:43;;;;;;;;;;;;;;;23.33;66.50;98596.98;1808831;79;20230;-86
2021/08/09 11:02:26;;;;;;;;;;;;;;;23.39;66.31;98595.92;1802737;77;24990;-86
2021/08/09 11:05:11;;;;;;;;;;;;;;;23.40;66.04;98589.08;1769674;79;22141;-86
2021/08/09 11:07:37;;;;;;;;;;;;;;;23.46;65.86;98591.52;1799877;77;26148;-87
2021/08/09 11:10:03;;;;;;;;;;;;;;;23.43;65.67;98588.69;1796916;79;24524;-86
2021/08/09 11:12:29;;;;;;;;;;;;;;;23.24;65.25;98583.37;1777448;80;20279;-88
2021/08/09 11:15:04;;;;;;;;;;;;;;;23.18;65.00;98581.97;1799474;79;25105;-88
2021/08/09 11:17:32;;;;;;;;;;;;;;;23.21;64.81;98578.92;1803394;78;21929;-88
2021/08/09 11:20:02;;;;;;;;;;;;;;;23.30;64.69;98576.47;1764194;79;26212;-88
2021/08/09 11:22:29;;;;;;;;;;;;;;;23.44;64.66;98580.17;1764758;80;24553;-88
2021/08/09 11:24:54;;;;;;;;;;;;;;;23.57;64.57;98577.18;1805684;79;20297;-88
2021/08/09 11:27:21;;;;;;;;;;;;;;;23.62;64.40;98584.13;1786561;79;20838;-88
2021/08/09 11:29:55;;;;;;;;;;;;;;;23.58;64.15;98582.02;1747963;80;22020;-88
2021/08/09 11:32:41;;;;;;;;;;;;;;;23.57;64.00;98594.55;1775906;79;26026;-88
2021/08/09 11:35:08;;;;;;;;;;;;;;;23.55;63.81;98593.09;1781175;79;24523;-88
2021/08/09 11:37:36;;;;;;;;;;;;;;;23.44;63.51;98588.19;1785339;79;20249;-88
2021/08/09 11:40:03;;;;;;;;;;;;;;;23.35;63.30;98587.43;1782893;79;25722;-88
2021/08/09 11:42:31;;;;;;;;;;;;;;;23.41;63.37;98584.02;1784988;79;22213;-88
2021/08/09 11:44:59;;;;;;;;;;;;;;;23.47;63.29;98589.17;1780395;79;25981;-88
2021/08/09 11:47:25;;;;;;;;;;;;;;;23.50;63.18;98585.64;1776954;79;25313;-88
2021/08/09 11:49:55;;;;;;;;;;;;;;;23.68;63.24;98590.07;1758302;80;20428;-88
2021/08/09 11:52:21;;;;;;;;;;;;;;;23.88;63.23;98584.16;1782986;79;24974;-88
2021/08/09 11:54:48;;;;;;;;;;;;;;;24.02;63.08;98581.44;1786324;79;21925;-88
2021/08/09 11:57:14;;;;;;;;;;;;;;;24.15;62.92;98572.73;1783903;79;26009;-88
2021/08/09 11:59:42;;;;;;;;;;;;;;;24.28;62.83;98580.08;1768246;79;20254;-86
2021/08/09 12:02:28;;;;;;;;;;;;;;;24.32;62.72;98580.04;1714587;82;20284;-87
2021/08/09 12:05:00;;;;;;;;;;;;;;;24.20;62.36;98581.05;1736529;82;25088;-87
2021/08/09 12:07:26;;;;;;;;;;;;;;;24.23;62.23;98578.48;1728803;81;21972;-87
2021/08/09 12:09:52;;;;;;;;;;;;;;;24.23;62.02;98579.82;1738153;82;26629;-87
2021/08/09 12:12:24;;;;;;;;;;;;;;;24.29;61.94;98581.23;1733703;82;24431;-87
2021/08/09 12:14:55;;;;;;;;;;;;;;;24.36;61.82;98576.78;1709634;83;20323;-87
2021/08/09 12:17:22;;;;;;;;;;;;;;;24.50;61.61;98582.56;1688803;83;24962;-87
2021/08/09 12:19:49;;;;;;;;;;;;;;;24.63;61.42;98578.36;1729076;82;22179;-88
2021/08/09 12:22:16;;;;;;;;;;;;;;;24.70;61.26;98577.91;1703701;82;26073;-88
2021/08/09 12:24:44;;;;;;;;;;;;;;;24.78;61.18;98575.08;1707365;82;25344;-88
2021/08/09 12:27:18;;;;;;;;;;;;;;;24.86;61.17;98569.60;1702281;82;20409;-88
2021/08/09 12:30:00;;;;;;;;;;;;;;;24.89;61.13;98571.40;1725153;81;25219;-86
2021/08/09 12:32:28;;;;;;;;;;;;;;;24.83;60.83;98566.78;1729327;82;22710;-86
2021/08/09 12:34:56;;;;;;;;;;;;;;;24.84;60.60;98562.27;1697745;82;26620;-86
2021/08/09 12:37:22;;;;;;;;;;;;;;;24.84;60.47;98559.59;1726598;82;24450;-86
2021/08/09 12:39:48;;;;;;;;;;;;;;;24.84;60.34;98559.08;1722437;82;20578;-85
2021/08/09 12:42:15;;;;;;;;;;;;;;;24.92;60.30;98559.48;1732754;82;25023;-86
2021/08/09 12:44:42;;;;;;;;;;;;;;;24.89;60.11;98559.86;1702548;82;21527;-86
2021/08/09 12:47:10;;;;;;;;;;;;;;;24.73;59.68;98557.44;1707476;82;26048;-86
2021/08/09 12:49:36;;;;;;;;;;;;;;;24.56;59.28;98557.72;1674446;84;24585;-87
2021/08/09 12:52:02;;;;;;;;;;;;;;;24.49;59.05;98559.50;1720484;82;20236;-86
2021/08/09 12:54:30;;;;;;;;;;;;;;;24.40;58.81;98561.16;1733332;82;24922;-86